Kempen Airport

EHBD · 北布拉班特省, 荷兰

2024年4月22日 09:002024年4月22日 18:00有效
时间
星期一
09:00
星期一
10:00
星期一
11:00
40%
星期一
12:00
40%
星期一
13:00
40%
星期一
14:00
40%
星期一
15:00
40%
星期一
16:00
40%
星期一
17:00
40%
代码
VFR
VFR
MVFR
MVFR
MVFR
MVFR
MVFR
MVFR
MVFR
天气
疏云,零星散落的云朵
疏云,零星散落的云朵
光 阵雨 雨
光 阵雨 雨
光 阵雨 雨
光 阵雨 雨
光 阵雨 雨
光 阵雨 雨
光 阵雨 雨
能见度
10 km+
10 km+
5 km
5 km
5 km
5 km
5 km
5 km
5 km
天花板
-
-
-
-
-
-
-
-
-
010°
010°
010°
010°
010°
010°
010°
010°
010°
010°
010°
010°
010°
010°
010°
010°
010°
010°
速度
5 kt
5 kt
5 kt
8 kt
8 kt
8 kt
8 kt
8 kt
8 kt
阵风
15 kt
15 kt
15 kt
15 kt
15 kt
15 kt
15 kt
温度/星期日

原版的

TAF EBBL 220541Z 2207/2216 01005KT 9999 SCT040 SCT170
PROB40 TEMPO 2209/2216 01005G15KT 5000 -SHRA SCT020TCU
BECMG 2210/2212 01008KT

TAF Kempen Airport

Kempen Airport是,荷兰中的中型机场。 该机场位于纬度51,25620和经度5,60195。 该机场有一条跑道: 3/21. 本场的ICAO机场代码为EHBD。 机场在Bruxelles FIR中。

该航空气象观测是针对Kleine Brogel Air Base在2024年4月22日 07:41, 当地时间进行的。 从2024年4月22日 09:00到2024年4月22日 18:00, 当地时间有效.

预报

  • 在星期一 09:00和18:00之间

    • 风: 风来自010°方向,速度为5 kt。
    • 能见度: 10 km 或者更多
    • 乌云: 疏云,零星散落的云朵在4.000 ft的高度 和 疏云,零星散落的云朵在17.000 ft的高度.
  • 暂时在星期一 11:00和18:00之间 ({一个机会)

    • 风: 风来自010°方向,速度为5 kt。 预计15 kt阵风。
    • 能见度: 5 km
    • 天气: 光 阵雨 雨
    • 乌云: 疏云,零星散落的云朵 高耸的积云在2.000 ft的高度.
  • 介于星期一 12:00和14:00之间

    • 风: 风来自010°方向,速度为8 kt。

白天

今天,太阳从06:26升起,在20:45降落。 这适用于Kempen Airport,世界夏令时可能有所不同。 当地时间与世界标准时间之间的时差为+2 小时。 夏令时目前正在进行中。

报告变更